Beulah, Mississippi
Current Conditions -  °F | °C
As of 4:55 AM on Monday 20 Oct 2014 (Local Time) from KRNV Reporting Station
Haze Haze  
Wind Chill: 48°   Ceiling: 700
Heat Index: 48°   Visibility: 1mi
Dew Point: 48°   Wind: 0mph
Humidity: 100%   Direction: NA
Pressure: 30.06"   Gusts: NA
Location:  33.79°N, 90.98°W
Report Text: KRNV 200955Z AUTO 00000KT 1SM BR VV007 09/09 A3006 RMK AO2 VIS 1/2V4 T00890089
Loading
Personal Weather Stations






























Interactive Weather Map
Tropical Storm Tracking
New forecast layout! Learn more

10-Day Weather Forecast

Advertisements
Track Severe Weather on mobile